Main page
METAR-TAF:

METAR-TAF

Airports :

Tabriz, Iran

Tabriz International Airport

latitude: 38-05N, longitude: 046-17E, elevation: 1367 m

Current weather observation

The report was made 20 minutes ago, at 04:30 UTC
Wind 12 kt from the East/Southeast
Temperature 26°C
Humidity 37%
Pressure 1018 hPa
Visibility 10 km or more
no clouds below 1500 m and no cumulonimbus

METAR: OITT 240430Z 11012KT CAVOK 26/10 Q1017 A3005

Time: 09:20 (04:50 UTC)

Forecast

The report was made 5 hours and 50 minutes ago, at 23:00 UTC
Forecast valid from 24 at 00 UTC to 25 at 06 UTC
Wind 10 kt from the East/Northeast
Visibility: 7000 m
Few clouds at a height of 3500 ft
Temporary
from 24 at 08 UTC to 24 at 13 UTC
Wind 16 kt from the East/Northeast with gusts up to 27 kt
Temporary
from 24 at 18 UTC to 25 at 03 UTC
Wind 14 kt from the Northeast with gusts up to 25 kt

TAF: OITT 232300Z 2400/2506 07005MPS 7000 FEW035 TEMPO 2408/2413 07008G14MPS TEMPO 2418/2503 05007G13MPS

Weather observations and forecasts of more than 4000 airports (METAR and TAF reports).

The available stations are represented by yellow and red dots on the map.

Hover mouse over dot to see the name of the station.

Then click to see weather observations and forecasts.

To change the map : click on the green buttons with a black cross to zoom in, on the green button with a dash to zoom out, or on the green arrows for adjacent maps.


METAR-TAF: